Terminal Aerodrome Forecast
Issued by NWS

Home | Current Version | Previous Version | Text Only | Print | Product List | Glossary On
Versions: 1 2 3 4 5 6 7 8 9 10 11 12 13 14 15 16 17
441
FTUS43 KFGF 241547 AAB
TAFBJI
TAF AMD
KBJI 241547Z 2416/2512 VRB05KT P6SM VCSH BKN050
     FM241630 VRB06KT P6SM SCT200
     FM242000 20005KT P6SM VCTS SCT060CB BKN200
     FM242300 09005KT P6SM SCT200=

USA.gov is the U.S. government's official web portal to all federal, state and local government web resources and services.